Olema, California
Current Conditions -  °F | °C
As of 11:55 PM on Friday 24 Oct 2014 (Local Time) from KDVO Reporting Station
Broken Clouds Broken Clouds  
Wind Chill: 63°   Ceiling: 3200
Heat Index: 63°   Visibility: 10mi
Dew Point: 55°   Wind: 7mph
Humidity: 77%   Direction: 140°SE
Pressure: 29.92"   Gusts: NA
Location:  38.04°N, 122.79°W
Report Text: KDVO 250655Z AUTO 14006KT 10SM BKN032 BKN037 BKN049 17/13 A2992 RMK AO2
Loading
Personal Weather Stations






























Interactive Weather Map
Tropical Storm Tracking
New forecast layout! Learn more

10-Day Weather Forecast

Advertisements
Track Severe Weather on mobile